Αρχική σελίδα
METAR-TAF:

METAR-TAF

Αεροδρόμια :

Dodge City, Κάνσας, Ηνωμένες Πολιτείες Αμερικής

γεωγραφικό πλάτος: 37-46-22N, γεωγραφικό μήκος: 099-58-11W, υψόμετρο: 790 μ

Παρών καιρός

Η αναφορά έγινε 55 λεπτά πριν, στις 17:52 UTC
Άνεμος 4 kt από μεταβλητές κατευθύνσεις
Θερμοκρασία -1°C
Υγρασία 64%
Πίεση 1026 hPa
Ορατότητα: 16.1 χλμ
Νεφοσκεπής σε ύψος 3800 πόδια

METAR: KDDC 181752Z AUTO VRB04KT 10SM OVC038 M01/M07 A3030 RMK AO2 SLP287 T10061067 11006 21056 58009 $

Χρόνος: 12:47 (18:47 UTC)

Πρόγνωση Καιρού

Η αναφορά έγινε 1 ώρα και 27 λεπτά πριν, στις 17:20 UTC
Η πρόγνωση ισχύει από τις 18 στις 18 UTC έως τις 19 στις 18 UTC
Άνεμος 5 kt από Β/BΔ
Ορατότητα: 10 χλμ
Αρκετά νέφη σε ύψος 6000 πόδια
Από 18 στις 1900 UTC
Άνεμος 6 kt από Δ
Ορατότητα: 10 χλμ
Διάσπαρτα νέφη σε ύψος 10000 πόδια

TAF: KDDC 181720Z 1818/1918 34005KT P6SM BKN060 FM181900 27006KT P6SM SCT100

Μετεωρολογικές αναφορές και προγνώσεις για περισσότερα από 4000 αεροδρόμια (δελτία METAR και TAF).

Οι διαθέσιμοι σταθμοί απεικονίζονται στο χάρτη με κίτρινες και κόκκινες κουκκίδες.

Μετακινήστε το ποντίκι πάνω από τις κουκκίδες για να δείτε το όνομα του σταθμού.

Στη συνέχεια, κάντε κλικ για να δείτε τις μετεωρολογικές αναφορές και τις προγνώσεις καιρού.

Για να αλλάξετε το χάρτη: κάντε κλικ στα πράσινα κουμπιά με τον μαύρο σταυρό για να ζουμάρετε, στο πράσινο κουμπί με την παύλα για να αφαιρέσετε το ζουμ ή στα πράσινα βέλη για να αντιπαραβάλλετε χάρτες.


METAR-TAF: